Texas Logo

Killeen, TX Single Family Real Estate Listings

701 Total Real Estate Listings * Click on table heading to sort
Date Posted Property Type Style Address Price Living Area Lot Size Price/Sq Ft.
2018-02-20 Single Family Traditional 4907 Bridgewood Drive Killeen, TX 76549 $169,500 2,283 sq. ft. 7,200 sq. ft. $74
2018-02-20 Single Family Traditional 3701 Dewitt County Killeen, TX 76549 $179,900 2,057 sq. ft. 7,867 sq. ft. $87
2018-02-20 Single Family Traditional 5008 Parkwood Killeen, TX 76542 $119,900 1,500 sq. ft. 10,158 sq. ft. $80
2018-02-20 Single Family Traditional 4510 Chelsea Drive Killeen, TX 76549 $167,000 1,987 sq. ft. 10,080 sq. ft. $84
2018-02-20 Single Family 2201 Price Dr Killeen, TX 76542 $156,000 1,786 sq. ft. 6,534 sq. ft. $87
2018-02-19 Single Family 2106 Whippoorwill Rd Killeen, TX 76542 $245,000 2,399 sq. ft. 15,246 sq. ft. $102
2018-02-19 Single Family Traditional 767 Rolling Hills Drive Killeen, TX 76543 $259,900 3,216 sq. ft. 38,089 sq. ft. $81
2018-02-19 Single Family Traditional 4904 Shumard Drive Killeen, TX 76542 $130,000 1,636 sq. ft. 8,577 sq. ft. $79
2018-02-19 Single Family Traditional 4103 Adolph Avenue Killeen, TX 76549 $124,900 1,397 sq. ft. 7,658 sq. ft. $89
2018-02-18 Single Family Contemporary 2604 Rampart Killeen, TX 76542 $107,900 1,320 sq. ft. 9,583 sq. ft. $82
2018-02-18 Single Family Traditional 7100 Bose Ikard Killeen, TX 76549 $184,000 2,206 sq. ft. 8,520 sq. ft. $83
2018-02-18 Single Family Traditional 3607 Cotton Patch Drive Killeen, TX 76549 $207,000 2,392 sq. ft. 7,706 sq. ft. $87
2018-02-18 Single Family Ranch 2808 Cheaney Killeen, TX 76543 $76,000 1,476 sq. ft. 7,139 sq. ft. $51
2018-02-18 Single Family Hill Country 9210 Bellgrove Killeen, TX 76542 $142,000 1,642 sq. ft. 5,175 sq. ft. $86
2018-02-18 Single Family Ranch 2006 Wright Way Killeen, TX 76543 $54,999 1,159 sq. ft. 5,301 sq. ft. $47
2018-02-17 Single Family Traditional 1602 Fairway Drive Killeen, TX 76549 $93,000 1,438 sq. ft. 9,962 sq. ft. $65
2018-02-17 Single Family Ranch 4902 Fossil Lane Killeen, TX 76542 $239,900 2,711 sq. ft. 9,879 sq. ft. $88
2018-02-17 Single Family Traditional 205 Petunia Circle Killeen, TX 76542 $132,000 1,809 sq. ft. 14,950 sq. ft. $73
2018-02-17 Single Family Ranch; Traditional 2106 Whippoorwill Killeen, TX 76542 $245,000 2,399 sq. ft. 15,298 sq. ft. $102
2018-02-16 Single Family 4402 Glennwood Drive Killeen, TX 76542 $106,000 1,992 sq. ft. 10,376 sq. ft. $53
2018-02-16 Single Family Traditional 9508 Diana Killeen, TX 76542 $159,900 2,032 sq. ft. 9,361 sq. ft. $79
2018-02-16 Single Family Ranch 9003 Devonshire Killeen, TX 76542 $179,900 2,274 sq. ft. 8,607 sq. ft. $79
2018-02-16 Single Family Traditional 2703 Bigleaf Drive Killeen, TX 76549 $127,500 1,732 sq. ft. 10,145 sq. ft. $74
2018-02-16 Single Family Contemporary 4301 Secretariat Drive Killeen, TX 76549 $108,900 1,586 sq. ft. 7,841 sq. ft. $69
2018-02-16 Single Family Contemporary 4601 Golden Gate Killeen, TX 76549 $138,900 1,904 sq. ft. 8,712 sq. ft. $73
2018-02-16 Single Family Ranch 5004 Adreana Killeen, TX 76549 $306,000 2,355 sq. ft. 9,840 sq. ft. $130
2018-02-16 Single Family Manufactured-Double Wide 3214 Cantabrian Killeen, TX 76542 $27,500 1,120 sq. ft. 11,809 sq. ft. $25
2018-02-16 Single Family 3306 John Porter Dr Killeen, TX 76543 $105,000 1,350 sq. ft. 10,890 sq. ft. $78
2018-02-15 Single Family Traditional 5611 Hercules Avenue Killeen, TX 76542 $149,995 2,062 sq. ft. 8,485 sq. ft. $73
2018-02-15 Single Family Contemporary; Ranch 2909 Traditions Drive Killeen, TX 76549 $199,500 1,848 sq. ft. 8,041 sq. ft. $108
2018-02-15 Single Family Contemporary 1611 Gigante Drive Killeen, TX 76543 $168,245 2,029 sq. ft. 13,068 sq. ft. $83
2018-02-15 Single Family Contemporary 1400 Gigante Drive Killeen, TX 76543 $181,340 2,586 sq. ft. 13,068 sq. ft. $70
2018-02-15 Single Family Contemporary Killeen, TX $104,900 1,269 sq. ft. 8,481 sq. ft. $83
2018-02-15 Single Family Traditional 3709 Tecovas Springs Killeen, TX 76549 $159,900 1,857 sq. ft. 10,559 sq. ft. $86
2018-02-15 Single Family 6204 Flat Slate Killeen, TX 76542 $249,900 2,098 sq. ft. $119
2018-02-15 Single Family Other-See Remarks 6204 Flat Slate Killeen, TX 76548 $249,900 2,098 sq. ft. 9,583 sq. ft. $119
2018-02-15 Single Family Contemporary 4206 Shagbark Killeen, TX 76542 $113,000 1,428 sq. ft. 7,850 sq. ft. $79
2018-02-15 Single Family 1903 Fleetwood Dr Killeen, TX 76543 $115,900 2,099 sq. ft. 8,451 sq. ft. $55
2018-02-15 Single Family 1808 Prather Dr Killeen, TX 76541 $189,900 2,095 sq. ft. 12,284 sq. ft. $91
2018-02-15 Single Family Traditional 1903 Fleetwood Killeen, TX 76543 $115,900 2,099 sq. ft. 8,446 sq. ft. $55
2018-02-15 Single Family Ranch 1808 Prather Killeen, TX 76541 $189,900 2,095 sq. ft. 12,275 sq. ft. $91
2018-02-15 Single Family Ranch 3316 Paintrock Killeen, TX 76549 $56,000 1,448 sq. ft. 8,485 sq. ft. $39
2018-02-14 Single Family Contemporary 610 Cardinal Killeen, TX 76541 $79,900 1,100 sq. ft. 6,064 sq. ft. $73
2018-02-14 Single Family Traditional 2905 Thoroughbred Killeen, TX 76549 $114,900 1,454 sq. ft. 8,533 sq. ft. $79
2018-02-14 Single Family Contemporary 4205 Matt Court Killeen, TX 76549 $119,900 1,815 sq. ft. 8,189 sq. ft. $66
2018-02-14 Single Family Ranch 3603 Catalina Killeen, TX 76549 $135,000 1,859 sq. ft. 7,383 sq. ft. $73
2018-02-14 Single Family 901 Gary Killeen, TX 76542 $118,500 1,683 sq. ft. 8,446 sq. ft. $70
2018-02-14 Single Family Contemporary 6803 Golden Oak Lane Killeen, TX 76542 $220,000 3,046 sq. ft. 8,041 sq. ft. $72
2018-02-14 Single Family Contemporary 4508 Greyhound Drive Killeen, TX 76549 $102,900 1,644 sq. ft. 10,877 sq. ft. $63
2018-02-14 Single Family Traditional 2409 Waterfall Killeen, TX 76549 $119,000 2,062 sq. ft. 5,898 sq. ft. $58
2018-02-14 Single Family Ranch 2505 Westwood Killeen, TX 76549 $124,900 1,668 sq. ft. 9,714 sq. ft. $75
2018-02-14 Single Family Contemporary 6407 Flat Slate Drive Killeen, TX 76542 $230,000 2,184 sq. ft. 10,019 sq. ft. $105
2018-02-14 Single Family 3515 Turner Killeen, TX 76543 $109,900 1,435 sq. ft. 9,662 sq. ft. $77
2018-02-14 Single Family Traditional 4303 Sand Dollar Killeen, TX 76549 $133,000 1,556 sq. ft. 8,303 sq. ft. $85
2018-02-14 Single Family Traditional 5211 Lyra Drive Killeen, TX 76542 $168,900 2,125 sq. ft. 5,889 sq. ft. $79
2018-02-13 Single Family Traditional 2601 Tara Drive Killeen, TX 76549 $175,000 2,183 sq. ft. 7,919 sq. ft. $80
2018-02-13 Single Family Contemporary 402 Sandra Sue Drive Killeen, TX 76542 $193,000 2,403 sq. ft. 9,100 sq. ft. $80
2018-02-13 Single Family Traditional 1107 Farhills Killeen, TX 76549 $89,900 1,373 sq. ft. 8,464 sq. ft. $65
2018-02-13 Single Family Contemporary 6305 Marble Falls Drive Killeen, TX 76542 $242,000 1,957 sq. ft. 11,069 sq. ft. $124
2018-02-13 Single Family Traditional 1504 Rose Killeen, TX 76543 $84,900 1,418 sq. ft. 8,825 sq. ft. $60
2018-02-13 Single Family Traditional 9402 Zayden Killeen, TX 76542 $166,900 2,044 sq. ft. 8,638 sq. ft. $82
2018-02-13 Single Family Traditional 4007 Bull Run Drive Killeen, TX 76549 $134,900 1,859 sq. ft. 7,841 sq. ft. $73
2018-02-13 Single Family Ranch 2604 Cross Timber Killeen, TX 76543 $59,900 1,164 sq. ft. 6,290 sq. ft. $51
2018-02-13 Single Family A-Frame 4703 Champion Drive Killeen, TX 76542 $109,900 1,596 sq. ft. 7,579 sq. ft. $69
2018-02-13 Single Family Traditional 2235 Hilltop Killeen, TX 76549 $60,000 953 sq. ft. 5,502 sq. ft. $63
2018-02-13 Single Family Traditional 1908 Kenyon Killeen, TX 76543 $54,000 1,300 sq. ft. 8,712 sq. ft. $42
2018-02-13 Single Family Ranch 5603 Drystone Killeen, TX 76542 $197,000 2,344 sq. ft. 9,100 sq. ft. $84
2018-02-12 Single Family Traditional 5509 Sulfur Springs Drive Killeen, TX 76542 $269,900 3,190 sq. ft. 14,562 sq. ft. $85
2018-02-12 Single Family 4102 Waterproof Killeen, TX 76549 $112,000 1,593 sq. ft. 8,320 sq. ft. $70
2018-02-12 Single Family Traditional 1301 Waterford Drive Killeen, TX 76542 $88,000 1,832 sq. ft. 7,619 sq. ft. $48
2018-02-12 Single Family Ranch 4711 Chantz Drive Killeen, TX 76542 $129,995 1,689 sq. ft. 9,165 sq. ft. $77
2018-02-12 Single Family Contemporary 6405 Serpentine Drive Killeen, TX 76542 $400,000 2,864 sq. ft. 10,123 sq. ft. $140
2018-02-12 Single Family Traditional 2411 Hidden Valley Killeen, TX 76543 $77,100 1,050 sq. ft. 9,274 sq. ft. $73
2018-02-12 Single Family Ranch 260 Mighty Oak Lane Killeen, TX 76542 $159,000 2,089 sq. ft. 46,609 sq. ft. $76
2018-02-12 Single Family Traditional 5504 Capricorn Killeen, TX 76542 $160,000 2,072 sq. ft. 5,998 sq. ft. $77
2018-02-12 Single Family Ranch 3900 Kevin Shaw Killeen, TX 76549 $123,000 1,647 sq. ft. 7,802 sq. ft. $75
2018-02-12 Single Family Traditional 2328 John Road Killeen, TX 76543 $109,999 1,452 sq. ft. 11,631 sq. ft. $76
2018-02-12 Single Family Traditional 3606 Trotwood Trail Killeen, TX 76543 $63,000 936 sq. ft. 6,142 sq. ft. $67
2018-02-12 Single Family Traditional 2700 Seabiscuit Killeen, TX 76549 $170,000 2,632 sq. ft. 8,041 sq. ft. $65
2018-02-11 Single Family Traditional 2802 Hemlock Killeen, TX 76549 $80,000 1,045 sq. ft. 6,795 sq. ft. $77
2018-02-11 Single Family Ranch 3709 Clementine Killeen, TX 76549 $126,900 1,704 sq. ft. 8,285 sq. ft. $74
2018-02-10 Single Family Other-See Remarks 709 Colonial Killeen, TX 76543 $75,000 1,043 sq. ft. 6,569 sq. ft. $72
2018-02-10 Single Family Traditional 4609 Janelle Drive Killeen, TX 76549 $110,000 1,448 sq. ft. 7,802 sq. ft. $76
2018-02-09 Single Family Traditional 3608 Ida Drive Killeen, TX 76549 $139,900 1,985 sq. ft. 7,919 sq. ft. $70
2018-02-09 Single Family Ranch 2004 Beretta Drive Killeen, TX 76543 $92,900 1,150 sq. ft. 8,690 sq. ft. $81
2018-02-09 Single Family 3403 Thunder Creek Dr Killeen, TX 76549 $127,000 1,879 sq. ft. 7,797 sq. ft. $68
2018-02-09 Single Family Traditional 3403 Thunder Creek Drive Killeen, TX 76549 $127,000 1,879 sq. ft. 7,784 sq. ft. $68
2018-02-09 Single Family Ranch 801 Gary Loop Killeen, TX 76542 $138,900 1,911 sq. ft. 11,652 sq. ft. $73
2018-02-09 Single Family Traditional 5606 Montrose Drive Killeen, TX 76542 $156,000 2,554 sq. ft. 7,505 sq. ft. $61
2018-02-09 Single Family 5606 Montrose Dr Killeen, TX 76542 $156,000 2,554 sq. ft. 7,492 sq. ft. $61
2018-02-09 Single Family Traditional 3705 Winchester Killeen, TX 76543 $98,500 1,280 sq. ft. 8,150 sq. ft. $77
2018-02-09 Single Family Traditional 3108 Doffy Drive Killeen, TX 76549 $109,500 1,586 sq. ft. 7,802 sq. ft. $69
2018-02-09 Single Family Traditional 5003 Wind Song Drive Killeen, TX 76542 $129,900 1,797 sq. ft. 8,751 sq. ft. $72
2018-02-08 Single Family Contemporary 6310 Nessy Drive Killeen, TX 76549 $179,000 2,389 sq. ft. 7,802 sq. ft. $75
2018-02-08 Single Family 4308 Ledgestone Dr Killeen, TX 76549 $103,499 1,540 sq. ft. 7,623 sq. ft. $67
2018-02-08 Single Family Contemporary 4506 Jim Avenue Killeen, TX 76549 $136,900 1,882 sq. ft. 8,390 sq. ft. $73
2018-02-08 Single Family Ranch 5300 Encino Oak Killeen, TX 76542 $214,900 2,239 sq. ft. 7,802 sq. ft. $96
2018-02-08 Single Family Ranch 907 Mallow Circle Killeen, TX 76542 $164,000 2,082 sq. ft. 12,057 sq. ft. $79
2018-02-08 Single Family 3801 Flat Rock Mountain Dr Killeen, TX 76549 $182,900 2,019 sq. ft. 7,710 sq. ft. $91
2018-02-08 Single Family 608 Dean Killeen, TX 76541 $50,000 775 sq. ft. 8,194 sq. ft. $65
2018-02-08 Single Family Ranch 4308 Ledgestone Killeen, TX 76549 $103,499 1,540 sq. ft. 7,601 sq. ft. $67
2018-02-08 Single Family Traditional 3908 Tallwood Killeen, TX 76549 $104,500 1,434 sq. ft. 8,599 sq. ft. $73
2018-02-08 Single Family Ranch 514 Lee Killeen, TX 76541 $73,500 1,191 sq. ft. 8,612 sq. ft. $62
2018-02-08 Single Family Traditional 3801 Flat Rock Mountain Killeen, TX 76549 $182,900 2,019 sq. ft. 7,706 sq. ft. $91
2018-02-08 Single Family Traditional 4805 Mohawk Drive Killeen, TX 76549 $197,006 1,970 sq. ft. 9,148 sq. ft. $100
2018-02-08 Single Family 4805 Neta Dr Killeen, TX 76549 $90,000 1,895 sq. ft. 9,235 sq. ft. $47
2018-02-08 Single Family Traditional 2607 Lohse Killeen, TX 76543 $64,900 1,436 sq. ft. 8,742 sq. ft. $45
2018-02-08 Single Family Traditional 6803 Bayberry Killeen, TX 76542 $224,900 2,985 sq. ft. 7,802 sq. ft. $75
2018-02-08 Single Family Ranch 1406 Cedar Drive Killeen, TX 76543 $75,000 1,449 sq. ft. 10,677 sq. ft. $52
2018-02-07 Single Family Contemporary 10003 Diana Drive Killeen, TX 76542 $145,900 1,625 sq. ft. 13,068 sq. ft. $90
2018-02-07 Single Family Traditional 4907 Birmingham Killeen, TX 76542 $199,500 2,704 sq. ft. 7,928 sq. ft. $74
2018-02-07 Single Family Contemporary 9005 Dunblane Killeen, TX 76542 $220,000 3,170 sq. ft. 7,841 sq. ft. $69
2018-02-07 Single Family Traditional 5303 Holster Drive Killeen, TX 76549 $120,000 1,663 sq. ft. 11,622 sq. ft. $72
2018-02-07 Single Family Contemporary 5005 Bayer Hollow Drive Killeen, TX 76549 $124,900 1,155 sq. ft. 13,068 sq. ft. $108
2018-02-07 Single Family Traditional 4909 Citrine Killeen, TX 76542 $178,000 1,831 sq. ft. 10,019 sq. ft. $97
2018-02-07 Single Family Contemporary 5617 Cobalt Killeen, TX 76542 $167,500 1,714 sq. ft. 9,662 sq. ft. $98
2018-02-07 Single Family Contemporary 6113 Malachi Killeen, TX 76542 $260,000 3,272 sq. ft. 9,152 sq. ft. $79
2018-02-07 Single Family Traditional 402 Orion Killeen, TX 76542 $195,000 2,161 sq. ft. 5,798 sq. ft. $90
2018-02-07 Single Family Traditional 307 Constellation Drive Killeen, TX 76542 $159,900 1,932 sq. ft. 8,712 sq. ft. $83
2018-02-06 Single Family Traditional 5400 Shawn Drive Killeen, TX 76542 $159,900 1,754 sq. ft. 8,102 sq. ft. $91
2018-02-06 Single Family Traditional 307 Constellation Drive Killeen, TX 76542 $159,900 1,932 sq. ft. 8,712 sq. ft. $83
2018-02-06 Single Family Ranch 5410 Bridgewood Killeen, TX 76549 $129,900 2,344 sq. ft. 8,612 sq. ft. $55
2018-02-06 Single Family Contemporary 2402 Ledgestone Drive Killeen, TX 76549 $113,900 1,463 sq. ft. 8,054 sq. ft. $78
2018-02-06 Single Family 3214 Timber Oak Dr Killeen, TX 76542 $115,900 1,520 sq. ft. 8,712 sq. ft. $76
2018-02-06 Single Family Contemporary 4406 Texas Rangers Drive Killeen, TX 76549 $169,900 2,044 sq. ft. 7,802 sq. ft. $83
2018-02-06 Single Family Ranch 5608 Upper Ridge Killeen, TX 76542 $182,000 1,935 sq. ft. 23,222 sq. ft. $94
2018-02-06 Single Family Contemporary 4613 Lookout Mountain Lane Killeen, TX 76549 $147,000 1,906 sq. ft. 5,401 sq. ft. $77
2018-02-05 Single Family Traditional 1016 18th Street Killeen, TX 76541 $64,900 1,322 sq. ft. 8,821 sq. ft. $49
2018-02-05 Single Family Traditional 3407 Westview Drive Killeen, TX 76543 $111,700 1,534 sq. ft. 7,405 sq. ft. $73
2018-02-05 Single Family Contemporary 224 Walnut Drive Killeen, TX 76549 $360,000 2,400 sq. ft. 218,323 sq. ft. $150
2018-02-05 Single Family Ranch 714 Irish Killeen, TX 76549 $181,000 1,736 sq. ft. 34,020 sq. ft. $104
2018-02-05 Single Family Traditional 3006 Jasmine Lane Killeen, TX 76549 $155,000 1,890 sq. ft. 7,867 sq. ft. $82
2018-02-05 Single Family Traditional 3015 Scottsdale Drive Killeen, TX 76543 $179,900 2,523 sq. ft. 8,028 sq. ft. $71
2018-02-05 Single Family Killeen, TX $103,000 1,766 sq. ft. 7,187 sq. ft. $58
2018-02-05 Single Family 2805 Southwood Dr Killeen, TX 76549 $124,900 1,673 sq. ft. 8,712 sq. ft. $75
2018-02-05 Single Family Prefab/Modular 1507 Karen Drive Killeen, TX 76549 $58,000 1,296 sq. ft. 8,242 sq. ft. $45
2018-02-05 Single Family Traditional 1817 Dusk Killeen, TX 76543 $94,995 1,621 sq. ft. 8,050 sq. ft. $59
2018-02-05 Single Family Ranch 4008 Waterproof Killeen, TX 76549 $99,500 1,547 sq. ft. 11,979 sq. ft. $64
2018-02-04 Single Family 5222 Siltstone Loop Killeen, TX 76542 $274,900 3,007 sq. ft. 9,714 sq. ft. $91
2018-02-04 Single Family Ranch 4113 Sand Dollar Drive Killeen, TX 76549 $158,000 2,356 sq. ft. 9,439 sq. ft. $67
2018-02-04 Single Family Contemporary 2001 Sherman Drive Killeen, TX 76543 $87,500 1,397 sq. ft. 9,535 sq. ft. $63
2018-02-04 Single Family 2707 Windmill Dr Killeen, TX 76549 $129,500 1,826 sq. ft. 8,189 sq. ft. $71
2018-02-03 Single Family Contemporary 4102 Waterproof Drive Killeen, TX 76549 $112,000 1,593 sq. ft. 8,307 sq. ft. $70
2018-02-02 Single Family Contemporary 6209 Newcastle Drive Killeen, TX 76549 $224,000 2,328 sq. ft. 8,712 sq. ft. $96
2018-02-02 Single Family Traditional 5501 Southern Belle Killeen, TX 76542 $247,000 3,262 sq. ft. 10,424 sq. ft. $76
2018-02-02 Single Family Traditional 2205 Armadillo Drive Killeen, TX 76549 $92,000 1,503 sq. ft. 5,828 sq. ft. $61
2018-02-02 Single Family Traditional 6408 Zinc Drive Killeen, TX 76542 $263,900 2,510 sq. ft. 12,602 sq. ft. $105
2018-02-02 Single Family Ranch 3214 Timber Oak Killeen, TX 76542 $115,900 1,520 sq. ft. 8,690 sq. ft. $76
2018-02-02 Single Family Traditional 2707 Windmill Drive Killeen, TX 76549 $129,500 1,826 sq. ft. 8,276 sq. ft. $71
2018-02-02 Single Family Traditional 4509 Crested Butte Killeen, TX 76542 $120,000 1,300 sq. ft. 7,819 sq. ft. $92
2018-02-02 Single Family 1910 Michele Dr Killeen, TX 76542 $81,900 1,415 sq. ft. 7,754 sq. ft. $58
2018-02-01 Single Family Traditional 2510 Schulze Drive Killeen, TX 76549 $94,000 1,769 sq. ft. 19,829 sq. ft. $53
2018-02-01 Single Family Ranch 5400 Laustin Lane Killeen, TX 76543 $158,585 1,904 sq. ft. 5,981 sq. ft. $83
2018-02-01 Single Family Traditional 5414 Laustin Drive Killeen, TX 76543 $172,150 2,149 sq. ft. 6,900 sq. ft. $80
2018-02-01 Single Family Traditional 5306 Laustin Lane Killeen, TX 76543 $173,390 2,367 sq. ft. 6,094 sq. ft. $73
2018-02-01 Single Family Ranch 5304 Laustin Lane Killeen, TX 76543 $156,675 1,853 sq. ft. 5,981 sq. ft. $85
2018-02-01 Single Family Traditional 6110 Melanie Drive Killeen, TX 76542 $152,900 1,814 sq. ft. 7,802 sq. ft. $84
2018-02-01 Single Family Traditional 2410 Wisteria Lane Killeen, TX 76549 $154,900 1,977 sq. ft. 7,980 sq. ft. $78
2018-02-01 Single Family 6004 Siltstone Loop Killeen, TX 76542 $209,900 2,355 sq. ft. 10,411 sq. ft. $89
2018-02-01 Single Family Traditional 4000 Mustang Killeen, TX 76549 $124,900 1,657 sq. ft. 11,962 sq. ft. $75
2018-02-01 Single Family 512 Lee Dr Killeen, TX 76541 $59,900 1,191 sq. ft. 13,329 sq. ft. $50
2018-02-01 Single Family 1315 Illinois Ave Killeen, TX 76541 $65,000 1,547 sq. ft. 7,405 sq. ft. $42
2018-02-01 Single Family Traditional 1301 Pine Killeen, TX 76543 $79,900 1,308 sq. ft. 9,583 sq. ft. $61
2018-02-01 Single Family 4502 Donegal Bay Ct Killeen, TX 76549 $154,900 2,115 sq. ft. 5,314 sq. ft. $73
2018-02-01 Single Family Ranch; Traditional 2003 Moonlight Killeen, TX 76543 $77,900 1,200 sq. ft. 7,444 sq. ft. $65
2018-01-31 Single Family Traditional 6509 Alabaster Drive Killeen, TX 76542 $325,950 3,575 sq. ft. 9,448 sq. ft. $91
2018-01-31 Single Family Traditional 7803 Zircon Drive Killeen, TX 76542 $326,140 3,575 sq. ft. 9,583 sq. ft. $91
2018-01-31 Single Family 9204 Bowfield Dr Killeen, TX 76542 $217,000 4,060 sq. ft. 6,882 sq. ft. $53
2018-01-31 Single Family Traditional 9204 Bowfield Killeen, TX 76542 $217,000 4,060 sq. ft. 6,900 sq. ft. $53
2018-01-31 Single Family Traditional 5711 Hercules Avenue Killeen, TX 76542 $155,000 1,884 sq. ft. 8,420 sq. ft. $82
2018-01-31 Single Family Mediterranean/Spanish 4703 Moose Ridge Court Killeen, TX 76542 $219,900 2,201 sq. ft. 12,236 sq. ft. $100
2018-01-31 Single Family Contemporary 6302 Flag Stone Drive Killeen, TX 76542 $258,000 2,396 sq. ft. 11,069 sq. ft. $108
2018-01-31 Single Family Ranch 1304 Missouri Killeen, TX 76541 $103,000 1,766 sq. ft. 7,200 sq. ft. $58
2018-01-31 Single Family Traditional 7602 Blue Nile Drive Killeen, TX 76542 $164,995 1,643 sq. ft. 9,100 sq. ft. $100
2018-01-30 Single Family Contemporary 5222 Siltstone Loop Killeen, TX 76542 $274,900 3,007 sq. ft. 9,718 sq. ft. $91
2018-01-30 Single Family Ranch 1302 Pine Drive Killeen, TX 76543 $95,995 2,119 sq. ft. 10,123 sq. ft. $45
2018-01-30 Single Family 300 Hedy Dr Killeen, TX 76542 $130,450 2,043 sq. ft. 10,411 sq. ft. $64
2018-01-30 Single Family 2600 Littlewood Dr Killeen, TX 76549 $87,500 2,115 sq. ft. 10,106 sq. ft. $41
2018-01-30 Single Family 1411 Copper Crk Killeen, TX 76549 $100,350 1,678 sq. ft. 7,318 sq. ft. $60
2018-01-30 Single Family Manufactured-Single Wide 5212 Tiffany Circle Killeen, TX 76549 $61,900 1,280 sq. ft. 14,810 sq. ft. $48
2018-01-30 Single Family 3908 Pilgram Killeen, TX 76543 $79,500 1,138 sq. ft. 7,510 sq. ft. $70
2018-01-30 Single Family Traditional 408 Hedy Drive Killeen, TX 76542 $174,000 1,929 sq. ft. 9,270 sq. ft. $90
2018-01-30 Single Family Ranch; Traditional 6804 Indian Hawthorne Drive Killeen, TX 76542 $182,500 1,853 sq. ft. 7,802 sq. ft. $98
2018-01-29 Single Family Traditional 6203 Griffith Loop Killeen, TX 76549 $123,900 1,507 sq. ft. 5,998 sq. ft. $82
2018-01-29 Single Family 21951 Wolfridge Rd Killeen, TX 76549 $229,500 2,280 sq. ft. 217,800 sq. ft. $101
2018-01-29 Single Family Traditional 3404 Tallwood Killeen, TX 76549 $99,900 1,448 sq. ft. 11,683 sq. ft. $69
2018-01-29 Single Family Manufactured-Double Wide 21951 Wolfridge Killeen, TX 76549 $229,500 2,280 sq. ft. 217,800 sq. ft. $101
2018-01-29 Single Family 2610 Lake Rd Killeen, TX 76543 $59,900 1,389 sq. ft. 8,538 sq. ft. $43
2018-01-29 Single Family Traditional 2610 Lake Killeen, TX 76543 $59,900 1,389 sq. ft. 8,529 sq. ft. $43
2018-01-29 Single Family Traditional 5008 Parkwood Killeen, TX 76542 $124,900 1,500 sq. ft. 10,158 sq. ft. $83
2018-01-28 Single Family Traditional 3805 London Ln Killeen, TX 76543 $70,000 990 sq. ft. 5,663 sq. ft. $71
2018-01-28 Single Family Traditional 711 Sissom Killeen, TX 76541 $60,000 1,110 sq. ft. 6,970 sq. ft. $54
2018-01-28 Single Family Traditional 1301 2nd Killeen, TX 76541 $70,000 1,136 sq. ft. 7,405 sq. ft. $62
2018-01-28 Single Family Traditional 510 Blake Killeen, TX 76541 $75,000 1,362 sq. ft. 7,841 sq. ft. $55
2018-01-28 Single Family Ranch 2707 Mirage Killeen, TX 76549 $117,000 990 sq. ft. 7,240 sq. ft. $118
2018-01-28 Single Family Traditional 1516 Shim's Killeen, TX 76543 $162,285 1,904 sq. ft. 5,663 sq. ft. $85
2018-01-28 Single Family Traditional 1520 Shim's Killeen, TX 76543 $175,390 2,367 sq. ft. 5,663 sq. ft. $74
2018-01-28 Single Family Traditional 5307 Waterbank Killeen, TX 76543 $165,950 1,776 sq. ft. 5,663 sq. ft. $93
2018-01-28 Single Family Traditional 5405 Waterbank Killeen, TX 76543 $179,815 2,586 sq. ft. 5,663 sq. ft. $70
2018-01-28 Single Family 4701 Reese Creek Rd Killeen, TX 76549 $164,900 1,221 sq. ft. 48,874 sq. ft. $135
2018-01-28 Single Family Traditional 5409 Waterbank Killeen, TX 76543 $167,150 2,149 sq. ft. 5,750 sq. ft. $78
2018-01-28 Single Family Ranch Killeen, TX $359,400 1,682 sq. ft. 193,755 sq. ft. $214
2018-01-27 Single Family Craftsman; Traditional 3511 Loma Gaile Lane Killeen, TX 76549 $176,900 1,680 sq. ft. 7,706 sq. ft. $105
2018-01-27 Single Family Ranch; Traditional 4701 Reese Creek Road Killeen, TX 76549 $164,900 1,221 sq. ft. 48,874 sq. ft. $135
2018-01-27 Single Family Ranch 1313 2nd Street Killeen, TX 76541 $44,900 1,400 sq. ft. 8,712 sq. ft. $32
2018-01-26 Single Family Other-See Remarks 806 Dunn Circle Killeen, TX 76541 $71,500 1,244 sq. ft. 6,360 sq. ft. $57
2018-01-26 Single Family Traditional 6211 Blayney Killeen, TX 76549 $129,900 1,670 sq. ft. 7,802 sq. ft. $78
2018-01-26 Single Family Contemporary; Ranch 7106 American West Killeen, TX 76549 $155,000 1,665 sq. ft. 9,069 sq. ft. $93
2018-01-26 Single Family Traditional 2609 Southwood Drive Killeen, TX 76549 $119,900 1,580 sq. ft. 8,289 sq. ft. $76
2018-01-25 Single Family Ranch 9504 Adeel Killeen, TX 76542 $184,900 2,125 sq. ft. 7,653 sq. ft. $87
2018-01-25 Single Family Traditional 4101 Odelia Killeen, TX 76542 $118,000 1,595 sq. ft. 9,679 sq. ft. $74
2018-01-25 Single Family Killeen, TX $55,000 1,091 sq. ft. 8,146 sq. ft. $50
2018-01-25 Single Family Traditional 309 Crystal Drive Killeen, TX 76541 $47,000 1,320 sq. ft. 9,496 sq. ft. $36
2018-01-25 Single Family Ranch 5106 Bridle Drive Killeen, TX 76549 $119,000 1,757 sq. ft. 9,662 sq. ft. $68
2018-01-25 Single Family Traditional 809 Draco Drive Killeen, TX 76542 $169,900 2,088 sq. ft. 6,016 sq. ft. $81
2018-01-25 Single Family Ranch 9917 Kaitlyn Drive Killeen, TX 76542 $193,612 1,996 sq. ft. 22,203 sq. ft. $97
2018-01-25 Single Family Ranch 9915 Kaitlyn Drive Killeen, TX 76542 $188,665 1,945 sq. ft. 9,200 sq. ft. $97
2018-01-24 Single Family Traditional 3614 Julia Ln Killeen, TX 76542 $108,500 1,265 sq. ft. 8,930 sq. ft. $86
2018-01-24 Single Family Contemporary 1209 Hummingbird Road Killeen, TX 76542 $399,000 4,187 sq. ft. 21,876 sq. ft. $95
2018-01-24 Single Family 608 Carmen St Killeen, TX 76541 $129,900 1,968 sq. ft. 10,629 sq. ft. $66
2018-01-24 Single Family Other-See Remarks 2803 Hillside Drive Killeen, TX 76543 $55,000 928 sq. ft. 7,841 sq. ft. $59
2018-01-24 Single Family 0000 Trimmier Rd Killeen, TX 76542 $725,000 3,065 sq. ft. 871,200 sq. ft. $237
2018-01-24 Single Family 5609 Elk Ridge Ct Killeen, TX 76542 $176,000 1,853 sq. ft. 17,860 sq. ft. $95
2018-01-24 Single Family Hill Country; Ranch 10653 Trimmier Killeen, TX 76542 $725,000 3,065 sq. ft. 871,200 sq. ft. $237
2018-01-23 Single Family Ranch 813 Florence Road Killeen, TX 76541 $43,900 861 sq. ft. 6,281 sq. ft. $51
2018-01-23 Single Family Ranch 2805 Southwood Killeen, TX 76549 $124,900 1,673 sq. ft. 8,690 sq. ft. $75
2018-01-22 Single Family Ranch 690 Turkey Trot Killeen, TX 76542 $129,000 1,631 sq. ft. 39,901 sq. ft. $79
2018-01-22 Single Family Contemporary 5913 Lolly Loop Killeen, TX 76542 $233,750 2,311 sq. ft. 14,749 sq. ft. $101
2018-01-22 Single Family Traditional 707 Leo Lane Killeen, TX 76542 $187,500 2,696 sq. ft. 8,281 sq. ft. $70
2018-01-22 Single Family Ranch 10108 Taylor Renee Drive Killeen, TX 76542 $191,284 1,972 sq. ft. 8,856 sq. ft. $97
2018-01-22 Single Family Ranch 10106 Taylor Renee Drive Killeen, TX 76542 $194,582 2,006 sq. ft. 8,895 sq. ft. $97
2018-01-21 Single Family Craftsman; Traditional 4513 Prewitt Ranch Road Killeen, TX 76549 $259,200 3,300 sq. ft. 12,720 sq. ft. $79
2018-01-20 Single Family Contemporary 5107 Founders Trail Killeen, TX 76549 $267,450 2,753 sq. ft. 8,276 sq. ft. $97
2018-01-20 Single Family Other-See Remarks 3308 Addison Street Killeen, TX 76542 $156,900 1,354 sq. ft. 5,624 sq. ft. $116
2018-01-20 Single Family Ranch; Traditional 1204 Metropolitan Drive Killeen, TX 76541 $93,500 1,691 sq. ft. 8,712 sq. ft. $55
2018-01-20 Single Family 4500 Stallion Drive Killeen, TX 76549 $109,900 1,487 sq. ft. 8,390 sq. ft. $74
2018-01-20 Single Family 5314 Birmingham Cir Killeen, TX 76542 $212,500 3,273 sq. ft. 7,841 sq. ft. $65
2018-01-19 Single Family Traditional 5314 Birmingham Circle Killeen, TX 76542 $212,500 3,273 sq. ft. 7,802 sq. ft. $65
2018-01-19 Single Family Traditional 5303 Barkey Court Killeen, TX 76542 $145,000 1,992 sq. ft. 8,024 sq. ft. $73
2018-01-19 Single Family Traditional 5609 Elk Ridge Court Killeen, TX 76542 $176,000 1,853 sq. ft. 17,868 sq. ft. $95
2018-01-19 Single Family 2901 Persimmon Killeen, TX 76543 $89,900 1,415 sq. ft. 17,433 sq. ft. $64
2018-01-19 Single Family Traditional 5501 Red Pine Killeen, TX 76542 $259,900 3,027 sq. ft. 7,767 sq. ft. $86
2018-01-19 Single Family Traditional 5713 Capricorn Killeen, TX 76542 $159,000 2,088 sq. ft. 5,885 sq. ft. $76
2018-01-18 Single Family Traditional 508 Duncan Avenue Killeen, TX 76541 $47,500 786 sq. ft. 8,111 sq. ft. $60
2018-01-18 Single Family 4919 Birmingham Cir Killeen, TX 76542 $232,000 2,818 sq. ft. 7,928 sq. ft. $82
2018-01-18 Single Family Traditional 4919 Birmingham Killeen, TX 76542 $232,000 2,818 sq. ft. 7,928 sq. ft. $82
2018-01-18 Single Family Traditional 205 Christopher Drive Killeen, TX 76549 $222,625 2,329 sq. ft. 7,841 sq. ft. $96
2018-01-18 Single Family Traditional 6400 Flat Slate Killeen, TX 76542 $298,000 2,501 sq. ft. 12,824 sq. ft. $119
2018-01-17 Single Family Contemporary 5110 Generations Killeen, TX 76549 $168,500 1,679 sq. ft. 10,080 sq. ft. $100
2018-01-17 Single Family Traditional 207 Cloud Killeen, TX 76541 $49,900 825 sq. ft. 6,948 sq. ft. $60
2018-01-17 Single Family Traditional 1102 Green Killeen, TX 76541 $49,900 1,096 sq. ft. 8,529 sq. ft. $46
2018-01-17 Single Family Traditional 922 Southside Killeen, TX 76541 $49,900 841 sq. ft. 6,325 sq. ft. $59
2018-01-17 Single Family Traditional 3103 Chisholm Trail Killeen, TX 76542 $87,000 1,423 sq. ft. 7,383 sq. ft. $61
2018-01-17 Single Family Contemporary 1610 Quarry Drive Killeen, TX 76543 $144,000 2,460 sq. ft. 6,303 sq. ft. $59
2018-01-17 Single Family Traditional 5400 Golden Gate Killeen, TX 76549 $189,900 3,282 sq. ft. 7,440 sq. ft. $58
2018-01-17 Single Family 2706 Timberline Killeen, TX 76543 $79,900 1,052 sq. ft. 6,098 sq. ft. $76
2018-01-17 Single Family Ranch 3108 Alamocitos Creek Killeen, TX 76549 $129,900 1,454 sq. ft. 8,398 sq. ft. $89
2018-01-17 Single Family 2705 Timberline Killeen, TX 76543 $79,900 1,128 sq. ft. 6,177 sq. ft. $71
2018-01-17 Single Family Traditional 5210 Williamette Killeen, TX 76549 $169,500 3,282 sq. ft. 7,318 sq. ft. $52
2018-01-17 Single Family Hill Country 9208 Sandyford Court Killeen, TX 76542 $141,900 1,430 sq. ft. 5,175 sq. ft. $99
2018-01-16 Single Family Traditional 3406 Rusack Killeen, TX 76542 $178,500 1,728 sq. ft. 5,401 sq. ft. $103
2018-01-16 Single Family Traditional 6003 Flag Stone Drive Killeen, TX 76542 $200,000 2,119 sq. ft. 11,879 sq. ft. $94
2018-01-16 Single Family 4006 Riverrock Dr Killeen, TX 76549 $104,900 1,285 sq. ft. 7,841 sq. ft. $82
2018-01-16 Single Family Ranch 5607 Bunny Trl Killeen, TX 76549 $159,900 1,958 sq. ft. 35,893 sq. ft. $82
2018-01-16 Single Family Traditional 4006 Riverrock Drive Killeen, TX 76549 $104,900 1,285 sq. ft. 7,993 sq. ft. $82
2018-01-16 Single Family Traditional 4703 Golden Gate Killeen, TX 76549 $169,500 2,088 sq. ft. 7,200 sq. ft. $81
2018-01-15 Single Family Traditional 401 Curtis Drive Killeen, TX 76542 $164,500 1,782 sq. ft. 8,751 sq. ft. $92
2018-01-15 Single Family 401 Curtis Dr Killeen, TX 76542 $164,500 1,782 sq. ft. 8,756 sq. ft. $92
2018-01-15 Single Family Contemporary 4310 Boots Killeen, TX 76549 $164,000 2,156 sq. ft. 24,337 sq. ft. $76
2018-01-15 Single Family Ranch 2911 Montague County Drive Killeen, TX 76549 $149,900 1,826 sq. ft. 7,802 sq. ft. $82
2018-01-15 Single Family Ranch 2002 Basalt Drive Killeen, TX 76549 $105,000 1,587 sq. ft. 7,867 sq. ft. $66
2018-01-15 Single Family Traditional 4603 Frontier Killeen, TX 76542 $122,000 1,455 sq. ft. 8,512 sq. ft. $84
2018-01-15 Single Family Ranch 2603 Inspiration Killeen, TX 76549 $239,000 2,178 sq. ft. 8,041 sq. ft. $110
2018-01-15 Single Family Ranch 5101 Founders Drive Killeen, TX 76549 $264,900 2,637 sq. ft. 9,039 sq. ft. $100
2018-01-14 Single Family Traditional 3409 Castleton Killeen, TX 76542 $164,000 1,796 sq. ft. 5,401 sq. ft. $91
2018-01-14 Single Family Ranch 207 Christopher Killeen, TX 76542 $189,736 1,767 sq. ft. 6,534 sq. ft. $107
2018-01-14 Single Family Traditional 201 Christopher Drive Killeen, TX 76549 $203,200 2,022 sq. ft. 9,583 sq. ft. $100
2018-01-14 Single Family Traditional 603 Orion Drive Killeen, TX 76542 $229,900 2,755 sq. ft. 8,120 sq. ft. $83
2018-01-13 Single Family Traditional 1106 Attas Avenue Killeen, TX 76541 $25,000 855 sq. ft. 5,279 sq. ft. $29
2018-01-13 Single Family Traditional 3608 Julia Killeen, TX 76542 $118,000 1,323 sq. ft. 7,680 sq. ft. $89
2018-01-13 Single Family Other-See Remarks 3311 Shawlands Road Killeen, TX 76542 $203,800 2,547 sq. ft. 6,900 sq. ft. $80
2018-01-12 Single Family Ranch 2810 Fishpond Lane Killeen, TX 76542 $139,900 1,746 sq. ft. 11,125 sq. ft. $80
2018-01-12 Single Family Traditional 6602 Katy Creek Lane Killeen, TX 76549 $179,000 2,175 sq. ft. 5,663 sq. ft. $82
2018-01-12 Single Family Traditional 301 Libra Killeen, TX 76542 $149,000 1,609 sq. ft. 7,588 sq. ft. $93
2018-01-12 Single Family Traditional 5011 Paragon Drive Killeen, TX 76542 $122,900 1,488 sq. ft. 9,527 sq. ft. $83
2018-01-12 Single Family 5506 Capricorn Loop Killeen, TX 76542 $114,400 2,152 sq. ft. 6,098 sq. ft. $53
2018-01-12 Single Family 6708 Cool Creek Dr Killeen, TX 76549 $254,900 3,612 sq. ft. 7,013 sq. ft. $71
2018-01-11 Single Family 9612 Adeel Dr Killeen, TX 76542 $139,900 1,420 sq. ft. 5,401 sq. ft. $99
2018-01-11 Single Family Traditional 2411 Botanical Drive Killeen, TX 76542 $132,500 2,107 sq. ft. 8,947 sq. ft. $63
2018-01-11 Single Family Ranch 3807 Endicott Killeen, TX 76549 $208,665 2,048 sq. ft. 7,937 sq. ft. $102
2018-01-11 Single Family Ranch 3805 Endicott Killeen, TX 76549 $195,365 2,048 sq. ft. 7,937 sq. ft. $95
2018-01-11 Single Family Traditional 6708 Cool Creek Killeen, TX 76549 $254,900 3,612 sq. ft. 7,022 sq. ft. $71
2018-01-11 Single Family Traditional 9612 Adeel Killeen, TX 76542 $139,900 1,420 sq. ft. 5,401 sq. ft. $99
2018-01-11 Single Family 3707 Endicott Dr Killeen, TX 76549 $184,940 1,662 sq. ft. 7,928 sq. ft. $111
2018-01-11 Single Family Ranch 3707 Endicott Killeen, TX 76549 $184,940 1,662 sq. ft. 7,937 sq. ft. $111
2018-01-11 Single Family Traditional 5108 Generations Drive Killeen, TX 76549 $189,900 1,765 sq. ft. 12,341 sq. ft. $108
2018-01-11 Single Family Traditional 3305 Cherry Road Killeen, TX 76543 $85,000 1,025 sq. ft. 4,992 sq. ft. $83
2018-01-11 Single Family Ranch 5503 Sulfur Spring Killeen, TX 76542 $153,500 1,649 sq. ft. 7,802 sq. ft. $93
2018-01-10 Single Family Traditional 9701 Raeburn Court Killeen, TX 76542 $225,900 2,764 sq. ft. 8,590 sq. ft. $82
2018-01-10 Single Family Traditional 1315 Illinois Killeen, TX 76541 $65,000 1,547 sq. ft. 7,392 sq. ft. $42
2018-01-10 Single Family Ranch; Traditional 4917 Kit Carson Killeen, TX 76542 $127,500 1,609 sq. ft. 11,866 sq. ft. $79
2018-01-10 Single Family Ranch 5004 Fresco Dr Killeen, TX 76549 $299,900 2,376 sq. ft. 9,583 sq. ft. $126
2018-01-10 Single Family 7501 Pyrite Dr Killeen, TX 76542 $249,500 2,352 sq. ft. 9,453 sq. ft. $106
2018-01-10 Single Family Traditional 7004 Osbaldo Drive Killeen, TX 76542 $213,900 2,299 sq. ft. 12,720 sq. ft. $93
2018-01-09 Single Family 5110 Donegal Bay Ct Killeen, TX 76549 $89,900 1,155 sq. ft. 5,401 sq. ft. $78
2018-01-09 Single Family Traditional 1102 Culp Killeen, TX 76541 $56,000 1,365 sq. ft. 13,948 sq. ft. $41
2018-01-09 Single Family Ranch 7501 Pyrite Killeen, TX 76542 $249,500 2,352 sq. ft. 9,431 sq. ft. $106
2018-01-09 Single Family Contemporary 2706 Hydrangea Avenue Killeen, TX 76549 $156,000 1,810 sq. ft. 8,320 sq. ft. $86
2018-01-08 Single Family Traditional 5004 Lindsey Drive Killeen, TX 76542 $129,950 1,807 sq. ft. 8,930 sq. ft. $72
2018-01-08 Single Family Traditional 6013 Cordillera Drive Killeen, TX 76549 $237,900 1,802 sq. ft. 8,276 sq. ft. $132
2018-01-08 Single Family Traditional 6005 Cordillera Drive Killeen, TX 76549 $251,900 1,956 sq. ft. 8,276 sq. ft. $129
2018-01-08 Single Family Traditional 6004 Cactus Flower Lane Killeen, TX 76549 $255,900 1,980 sq. ft. 8,276 sq. ft. $129
2018-01-08 Single Family Traditional 6011 Cordillera Drive Killeen, TX 76549 $289,900 2,193 sq. ft. 8,276 sq. ft. $132
2018-01-08 Single Family Traditional 6010 Cactus Flower Lane Killeen, TX 76549 $300,900 2,328 sq. ft. 8,276 sq. ft. $129
2018-01-08 Single Family Traditional 605 Curtis Killeen, TX 76542 $169,900 1,766 sq. ft. 9,261 sq. ft. $96
2018-01-08 Single Family Ranch 4205 Kit Carson Killeen, TX 76542 $210,000 1,953 sq. ft. 10,890 sq. ft. $108
2018-01-08 Single Family Traditional 650 County Road 221 Killeen, TX 76549 $389,900 2,473 sq. ft. 661,241 sq. ft. $158
2018-01-08 Single Family Traditional 706 Spoke Killeen, TX 76542 $87,500 1,099 sq. ft. 9,574 sq. ft. $80
2018-01-05 Single Family Ranch 3606 Breeder Lane Killeen, TX 76549 $199,900 2,054 sq. ft. 9,614 sq. ft. $97
2018-01-05 Single Family Ranch; Traditional 5206 Rimes Court Killeen, TX 76549 $149,900 1,818 sq. ft. 8,442 sq. ft. $82
2018-01-05 Single Family Contemporary 6610 Golden Oak Lane Killeen, TX 76542 $167,900 1,842 sq. ft. 7,841 sq. ft. $91
2018-01-05 Single Family Other-See Remarks 3313 Addison Street Killeen, TX 76542 $161,500 1,509 sq. ft. 5,175 sq. ft. $107
2018-01-05 Single Family Other-See Remarks 3310 Addison Street Killeen, TX 76542 $173,500 1,681 sq. ft. 5,624 sq. ft. $103
2018-01-05 Single Family 905 Bellaire Dr Killeen, TX 76541 $83,000 1,430 sq. ft. 9,714 sq. ft. $58
2018-01-04 Single Family 4203 Sunflower Dr Killeen, TX 76542 $119,900 1,558 sq. ft. 6,055 sq. ft. $77
2018-01-04 Single Family 1804 Kangaroo Ave Killeen, TX 76543 $118,900 1,745 sq. ft. 9,845 sq. ft. $68
2018-01-04 Single Family 1401 Copper Creek Killeen, TX 76549 $157,900 2,094 sq. ft. $75
2018-01-04 Single Family Ranch 1804 Kangaroo Killeen, TX 76543 $118,900 1,745 sq. ft. 9,831 sq. ft. $68
2018-01-04 Single Family 508 Eric Dr Killeen, TX 76542 $108,900 1,600 sq. ft. 9,322 sq. ft. $68
2018-01-04 Single Family Traditional 1401 Copper Creek Killeen, TX 76549 $157,900 2,094 sq. ft. 6,970 sq. ft. $75
2018-01-04 Single Family Traditional 309 Orion Drive Killeen, TX 76542 $229,900 3,117 sq. ft. 5,798 sq. ft. $74
2018-01-04 Single Family Contemporary 4205 Maid Marian Killeen, TX 76549 $131,500 1,792 sq. ft. 10,772 sq. ft. $73
2018-01-03 Single Family Contemporary 4408 Wade Drive Killeen, TX 76549 $112,000 1,611 sq. ft. 7,532 sq. ft. $70
2018-01-02 Single Family Ranch 508 Eric Drive Killeen, TX 76542 $108,900 1,600 sq. ft. 9,331 sq. ft. $68
2018-01-02 Single Family Contemporary 3606 Doffy Killeen, TX 76549 $121,000 1,471 sq. ft. 7,802 sq. ft. $82
2018-01-02 Single Family Contemporary 2508 Willow Springs Road Killeen, TX 76549 $86,000 1,574 sq. ft. 8,276 sq. ft. $55
2018-01-02 Single Family Contemporary 6108 Alexus Drive Killeen, TX 76542 $159,000 2,061 sq. ft. 7,841 sq. ft. $77
2017-12-29 Single Family 1609 Julie Jacqueline Dr Killeen, TX 76542 $89,900 1,095 sq. ft. 8,189 sq. ft. $82
2017-12-29 Single Family 2413 Haven Dr Killeen, TX 76543 $95,900 1,344 sq. ft. 5,576 sq. ft. $71
2017-12-28 Single Family Craftsman; Traditional 2807 Camp Cooper Drive Killeen, TX 76549 $144,000 1,546 sq. ft. 8,276 sq. ft. $93
2017-12-28 Single Family Traditional 2413 Haven Killeen, TX 76543 $95,900 1,344 sq. ft. 5,563 sq. ft. $71
2017-12-27 Single Family Traditional 9509 Fratelli Court Killeen, TX 76542 $139,000 1,616 sq. ft. 5,354 sq. ft. $86
2017-12-27 Single Family Traditional 2605 Boswell Killeen, TX 76543 $96,000 1,187 sq. ft. 10,960 sq. ft. $81
2017-12-26 Single Family Traditional 6406 Zinc Drive Killeen, TX 76542 $249,900 2,283 sq. ft. 12,602 sq. ft. $109
2017-12-25 Single Family 537 Rolling Hills Dr Killeen, TX 76543 $275,000 3,103 sq. ft. 23,305 sq. ft. $89
2017-12-23 Single Family Traditional 4909 Old Homestead Killeen, TX 76549 $189,900 2,616 sq. ft. 8,943 sq. ft. $73
2017-12-22 Single Family Traditional 4203 Glennwood Killeen, TX 76542 $112,000 1,313 sq. ft. 7,575 sq. ft. $85
2017-12-22 Single Family Contemporary; Traditional 4106 Sand Dollar Killeen, TX 76549 $99,000 1,558 sq. ft. 10,454 sq. ft. $64
2017-12-21 Single Family Contemporary 2206 Windmill Dr Killeen, TX 76549 $88,500 1,085 sq. ft. 6,273 sq. ft. $82
2017-12-20 Single Family Ranch 4511 Secretariat Drive Killeen, TX 76549 $132,900 2,014 sq. ft. 7,606 sq. ft. $66
2017-12-19 Single Family Contemporary 1201 Leader Drive Killeen, TX 76549 $79,900 1,180 sq. ft. 13,068 sq. ft. $68
2017-12-19 Single Family Contemporary 1910 Flagstaff Killeen, TX 76543 $168,000 2,550 sq. ft. 7,649 sq. ft. $66
2017-12-19 Single Family Traditional 9004 Bellgrove Killeen, TX 76542 $170,000 2,340 sq. ft. 10,354 sq. ft. $73
2017-12-19 Single Family Contemporary Killeen, TX $129,900 1,612 sq. ft. 9,601 sq. ft. $81
2017-12-18 Single Family 3416 Lorne Killeen, TX 76542 $179,410 1,900 sq. ft. 5,780 sq. ft. $94
2017-12-18 Single Family 3418 Lorne Killeen, TX 76542 $203,135 2,306 sq. ft. 6,987 sq. ft. $88
2017-12-18 Single Family Traditional 1214 Liberty Bell Loop Killeen, TX 76543 $84,900 1,200 sq. ft. 9,013 sq. ft. $71
2017-12-18 Single Family Traditional 9617 Glynhill Killeen, TX 76542 $164,480 1,476 sq. ft. 5,859 sq. ft. $111
2017-12-18 Single Family Traditional 9516 Glynhill Killeen, TX 76542 $212,325 2,707 sq. ft. 5,354 sq. ft. $78
2017-12-18 Single Family Traditional 3608 Woodlake Drive Killeen, TX 76549 $97,000 1,466 sq. ft. 8,028 sq. ft. $66
2017-12-16 Single Family Craftsman; Traditional 4603 Prewitt Ranch Killeen, TX 76549 $261,200 3,249 sq. ft. 13,295 sq. ft. $80
2017-12-15 Single Family Other-See Remarks 3312 Shawlands Rd Killeen, TX 76542 $218,000 2,901 sq. ft. 6,900 sq. ft. $75
2017-12-15 Single Family 606 Stringer St Killeen, TX 76541 $64,950 936 sq. ft. 6,229 sq. ft. $69
2017-12-15 Single Family Traditional 3900 Joshua Taylor Killeen, TX 76549 $99,900 1,330 sq. ft. 7,257 sq. ft. $75
2017-12-15 Single Family 308 Estate Dr Killeen, TX 76549 $539,000 2,834 sq. ft. 209,959 sq. ft. $190
2017-12-15 Single Family 513 Perseus Killeen, TX 76542 $139,900 1,856 sq. ft. 6,011 sq. ft. $75
2017-12-15 Single Family 5905 Siltstone Loop Killeen, TX 76542 $235,000 2,096 sq. ft. 13,499 sq. ft. $112
2017-12-14 Single Family Traditional 1106 Royal Crest Drive Killeen, TX 76549 $56,900 992 sq. ft. 2,614 sq. ft. $57
2017-12-14 Single Family Traditional 513 Perseus Killeen, TX 76542 $139,900 1,856 sq. ft. 5,998 sq. ft. $75
2017-12-14 Single Family Traditional 606 Stringer Killeen, TX 76541 $64,950 936 sq. ft. 6,233 sq. ft. $69
2017-12-13 Single Family Traditional 508 Orion Killeen, TX 76542 $129,900 2,376 sq. ft. 9,047 sq. ft. $55
2017-12-13 Single Family Contemporary 800 Draco Drive Killeen, TX 76542 $169,900 2,088 sq. ft. 14,462 sq. ft. $81
2017-12-13 Single Family Traditional 9415 Glynhill Court Killeen, TX 76542 $230,680 2,744 sq. ft. 6,900 sq. ft. $84
2017-12-13 Single Family 411 Atlas Ave Killeen, TX 76542 $154,500 1,821 sq. ft. 7,710 sq. ft. $85
2017-12-13 Single Family Traditional 5508 Holster Killeen, TX 76549 $135,000 1,918 sq. ft. 10,428 sq. ft. $70
2017-12-13 Single Family Traditional 408 Medina Killeen, TX 76542 $124,000 1,571 sq. ft. 8,625 sq. ft. $79
2017-12-13 Single Family Ranch 5002 Fresco Dr Killeen, TX 76549 $279,000 2,120 sq. ft. 10,890 sq. ft. $132
2017-12-13 Single Family Ranch 5008 Fresco Dr Killeen, TX 76549 $306,000 2,390 sq. ft. 10,454 sq. ft. $128
2017-12-13 Single Family Contemporary 2803 Traditions Killeen, TX 76549 $205,000 1,832 sq. ft. 8,041 sq. ft. $112
2017-12-13 Single Family Traditional 217 Dunn Avenue Killeen, TX 76541 $53,900 910 sq. ft. 4,574 sq. ft. $59
2017-12-13 Single Family Traditional 1813 Wheeler Killeen, TX 76549 $79,999 1,768 sq. ft. 8,764 sq. ft. $45
2017-12-12 Single Family Ranch 5001 Nuevo Killeen, TX 76522 $306,000 2,390 sq. ft. 10,454 sq. ft. $128
2017-12-12 Single Family Traditional 1217 Liberty Bell Loop Killeen, TX 76543 $76,900 1,102 sq. ft. 7,113 sq. ft. $70
2017-12-12 Single Family Traditional 603 Shad Circle Killeen, TX 76542 $165,000 2,356 sq. ft. 18,400 sq. ft. $70
2017-12-12 Single Family Other-See Remarks 3609 Parkmill Killeen, TX 76542 $217,900 2,691 sq. ft. 7,200 sq. ft. $81
2017-12-12 Single Family Contemporary 6100 Sulfur Springs Killeen, TX 76542 $188,500 2,150 sq. ft. 13,068 sq. ft. $88
2017-12-10 Single Family Other-See Remarks 3606 Addison Street Killeen, TX 76542 $266,000 3,227 sq. ft. 7,200 sq. ft. $82
2017-12-10 Single Family Contemporary 2902 Lavender Lane Killeen, TX 76549 $159,900 1,850 sq. ft. 7,867 sq. ft. $86
2017-12-10 Single Family Ranch 4505 Golden Gate Drive Killeen, TX 76549 $143,000 2,514 sq. ft. 7,200 sq. ft. $57
2017-12-09 Single Family Traditional 4307 Matt Drive Killeen, TX 76549 $113,900 1,625 sq. ft. 8,255 sq. ft. $70
2017-12-08 Single Family Traditional 6409 Jovana Killeen, TX 76542 $274,900 2,454 sq. ft. 13,299 sq. ft. $112
2017-12-08 Single Family Traditional 4411 Joe Drive Killeen, TX 76542 $207,000 2,121 sq. ft. 9,361 sq. ft. $98
2017-12-08 Single Family Traditional 7708 Pyrite Drive Killeen, TX 76542 $269,900 2,140 sq. ft. 13,939 sq. ft. $126
2017-12-08 Single Family Traditional 7700 Pyrite Drive Killeen, TX 76542 $306,900 2,376 sq. ft. 13,939 sq. ft. $129
2017-12-08 Single Family 4411 Joe Dr Killeen, TX 76542 $207,000 2,121 sq. ft. 9,148 sq. ft. $98
2017-12-07 Single Family Traditional 4116 Fawn Killeen, TX 76542 $149,950 1,805 sq. ft. 12,293 sq. ft. $83
2017-12-07 Single Family 3907 Split Oak Dr Killeen, TX 76542 $119,900 1,861 sq. ft. 7,362 sq. ft. $64
2017-12-07 Single Family Ranch 6111 Bridgewood Drive Killeen, TX 76549 $157,000 2,141 sq. ft. 7,841 sq. ft. $73
2017-12-06 Single Family 3806 Endicott Dr Killeen, TX 76549 $190,600 1,843 sq. ft. 7,928 sq. ft. $103
2017-12-06 Single Family 3802 Endicott Dr Killeen, TX 76549 $211,950 2,490 sq. ft. 7,928 sq. ft. $85
2017-12-06 Single Family 3811 Endicott Dr Killeen, TX 76549 $236,575 2,802 sq. ft. 7,928 sq. ft. $84
2017-12-06 Single Family 3809 Endicott Dr Killeen, TX 76549 $242,450 3,036 sq. ft. 7,928 sq. ft. $80
2017-12-06 Single Family 3408 Cotton Patch Dr Killeen, TX 76549 $196,600 1,843 sq. ft. 7,710 sq. ft. $107
2017-12-06 Single Family Other-See Remarks 1513 Daude Killeen, TX 76549 $144,900 2,340 sq. ft. 9,514 sq. ft. $62
2017-12-05 Single Family Traditional 4307 Esta Lee Killeen, TX 76549 $139,000 1,719 sq. ft. 7,841 sq. ft. $81
2017-12-05 Single Family Contemporary 2900 Wisteria Lane Killeen, TX 76549 $158,900 1,850 sq. ft. 8,891 sq. ft. $86
2017-12-05 Single Family Ranch 1519 Meadow Drive Killeen, TX 76549 $75,000 1,214 sq. ft. 6,861 sq. ft. $62
2017-12-05 Single Family 907 Jefferies Ave Killeen, TX 76543 $50,000 1,103 sq. ft. 6,098 sq. ft. $45
2017-12-04 Single Family Mediterranean/Spanish 5411 Fiesta Oak Killeen, TX 76542 $264,900 2,628 sq. ft. 24,681 sq. ft. $101
2017-12-04 Single Family Traditional 509 Orion Killeen, TX 76542 $196,500 2,187 sq. ft. 8,120 sq. ft. $90
2017-12-02 Single Family Mediterranean/Spanish 5408 Fiesta Oak Drive Killeen, TX 76542 $229,000 2,253 sq. ft. 8,481 sq. ft. $102
2017-12-02 Single Family Traditional 2404 Pixton Drive Killeen, TX 76543 $84,900 1,344 sq. ft. 6,878 sq. ft. $63
2017-12-01 Single Family Contemporary 2205 Flagstaff Drive Killeen, TX 76543 $125,900 1,616 sq. ft. 8,250 sq. ft. $78
2017-12-01 Single Family Traditional 6102 Tanzanite Drive Killeen, TX 76542 $249,000 2,268 sq. ft. 11,474 sq. ft. $110
2017-12-01 Single Family Contemporary 6707 Catherine Drive Killeen, TX 76542 $185,950 1,930 sq. ft. 7,841 sq. ft. $96
2017-11-30 Single Family Contemporary 2501 John Helen Drive Killeen, TX 76549 $239,900 2,441 sq. ft. 9,601 sq. ft. $98
2017-11-30 Single Family 5207 Birmingham Cir Killeen, TX 76542 $222,900 3,246 sq. ft. 8,668 sq. ft. $69
2017-11-30 Single Family Traditional 5207 Birmingham Killeen, TX 76542 $222,900 3,246 sq. ft. 8,647 sq. ft. $69
2017-11-30 Single Family Traditional 215 Prather Killeen, TX 76541 $74,900 1,344 sq. ft. 11,400 sq. ft. $56
2017-11-30 Single Family Ranch 2609 Tarrant County Killeen, TX 76549 $144,900 1,558 sq. ft. 7,802 sq. ft. $93
2017-11-30 Single Family Ranch 2152 Creek Place Drive Killeen, TX 76549 $287,000 1,779 sq. ft. 174,284 sq. ft. $161
2017-11-30 Single Family 19300 Fm 2484 Killeen, TX 76542 $100,000 1,196 sq. ft. 79,018 sq. ft. $84
2017-11-29 Single Family Contemporary 308 Spring Hollow Killeen, TX 76543 $119,900 1,670 sq. ft. 14,279 sq. ft. $72
2017-11-29 Single Family Traditional 7704 Zircon Drive Killeen, TX 76543 $264,960 2,200 sq. ft. 10,359 sq. ft. $120
2017-11-29 Single Family Traditional 7702 Zircon Drive Killeen, TX 76543 $255,154 2,058 sq. ft. 10,607 sq. ft. $124
2017-11-28 Single Family Traditional 5014 Lions Gate Lane Killeen, TX 76549 $129,900 1,317 sq. ft. 6,599 sq. ft. $99
2017-11-28 Single Family Traditional 9007 Dunblane Killeen, TX 76542 $259,900 4,085 sq. ft. 6,900 sq. ft. $64
2017-11-27 Single Family Contemporary Killeen, TX $208,500 1,991 sq. ft. 8,041 sq. ft. $105
2017-11-27 Single Family Ranch 3501 Westview Drive Killeen, TX 76543 $100,000 1,385 sq. ft. 7,841 sq. ft. $72
2017-11-26 Single Family Traditional 3811 Endicott Drive Killeen, TX 76549 $236,575 2,802 sq. ft. 7,937 sq. ft. $84
2017-11-26 Single Family Other-See Remarks 3624 Addison Street Killeen, TX 76542 $269,900 3,249 sq. ft. 7,200 sq. ft. $83
2017-11-26 Single Family Traditional 3809 Endicott Drive Killeen, TX 76549 $242,450 3,036 sq. ft. 7,937 sq. ft. $80
2017-11-26 Single Family Traditional 3802 Endicott Drive Killeen, TX 76549 $211,950 2,490 sq. ft. 7,937 sq. ft. $85
2017-11-26 Single Family Ranch 3806 Endicott Drive Killeen, TX 76549 $190,600 1,843 sq. ft. 7,937 sq. ft. $103
2017-11-26 Single Family Ranch 3408 Cotton Patch Killeen, TX 76549 $196,600 1,843 sq. ft. 7,706 sq. ft. $107
2017-11-25 Single Family Ranch 411 Atlas Avenue Killeen, TX 76542 $154,500 1,821 sq. ft. 7,706 sq. ft. $85
2017-11-25 Single Family Traditional 503 Orion Killeen, TX 76542 $166,000 2,696 sq. ft. 7,771 sq. ft. $62
2017-11-24 Single Family Ranch 2106 Clairidge Avenue Killeen, TX 76549 $96,000 1,240 sq. ft. 7,841 sq. ft. $77
2017-11-24 Single Family Ranch 8931 Viewpark Lane Killeen, TX 76542 $217,200 2,171 sq. ft. 6,991 sq. ft. $100
2017-11-23 Single Family Ranch 3308 Lorne Drive Killeen, TX 76542 $197,890 2,212 sq. ft. 5,536 sq. ft. $89
2017-11-22 Single Family 956 Riverside Dr Killeen, TX 76549 $479,900 2,483 sq. ft. 479,160 sq. ft. $193
2017-11-22 Single Family Traditional 2808 Cactus Drive Killeen, TX 76549 $89,900 1,371 sq. ft. 9,588 sq. ft. $66
2017-11-21 Single Family Traditional 5307 Sydney Harbour Killeen, TX 76549 $135,000 1,875 sq. ft. 8,638 sq. ft. $72
2017-11-21 Single Family Traditional 4509 Golden Gate Drive Killeen, TX 76549 $179,165 2,410 sq. ft. 7,200 sq. ft. $74
2017-11-21 Single Family 5008 Golden Gate Killeen, TX 76549 $142,500 1,980 sq. ft. 7,200 sq. ft. $72
2017-11-21 Single Family Traditional 9209 Bowfield Killeen, TX 76542 $149,900 1,525 sq. ft. 5,175 sq. ft. $98
2017-11-21 Single Family Ranch 2901 Montague County Killeen, TX 76549 $115,000 1,158 sq. ft. 7,802 sq. ft. $99
2017-11-21 Single Family Ranch 2603 Camp Cooper Drive Killeen, TX 76549 $139,000 1,447 sq. ft. 7,919 sq. ft. $96
2017-11-21 Single Family Contemporary 2511 Traditions Drive Killeen, TX 76549 $199,900 1,893 sq. ft. 8,041 sq. ft. $106
2017-11-21 Single Family 3302 Valencia Dr Killeen, TX 76542 $69,900 1,456 sq. ft. 6,708 sq. ft. $48
2017-11-21 Single Family Traditional 1810 Sycamore Killeen, TX 76543 $120,000 2,109 sq. ft. 11,286 sq. ft. $57
2017-11-20 Single Family Ranch 1712 Leisha Lane Killeen, TX 76549 $74,900 1,096 sq. ft. 6,299 sq. ft. $68
2017-11-20 Single Family Ranch 3416 Parkmill Drive Killeen, TX 76542 $205,532 2,306 sq. ft. 7,405 sq. ft. $89
2017-11-20 Single Family Hill Country 956 Riverside Drive Killeen, TX 76549 $479,900 2,483 sq. ft. 479,160 sq. ft. $193
2017-11-20 Single Family Ranch 9604 Glynhill Court Killeen, TX 76542 $208,540 2,306 sq. ft. 7,405 sq. ft. $90
2017-11-20 Single Family Traditional 202 Voelter Killeen, TX 76541 $55,000 1,091 sq. ft. 8,137 sq. ft. $50
2017-11-20 Single Family Traditional 1704 Big Bend Killeen, TX 76549 $109,900 1,472 sq. ft. 8,760 sq. ft. $75
2017-11-18 Single Family Ranch 9600 Glynhill Court Killeen, TX 76542 $193,725 2,212 sq. ft. 7,405 sq. ft. $88
2017-11-18 Single Family Traditional 608 Carmen Street Killeen, TX 76541 $129,900 1,968 sq. ft. 10,642 sq. ft. $66
2017-11-17 Single Family Contemporary 2708 Bigleaf Drive Killeen, TX 76549 $119,500 1,668 sq. ft. 7,667 sq. ft. $72
2017-11-17 Single Family Ranch 9201 Ashlyn Drive Killeen, TX 76542 $188,000 2,805 sq. ft. 6,900 sq. ft. $67
2017-11-17 Single Family Ranch 2712 Grasslands Killeen, TX 76549 $89,900 1,506 sq. ft. 8,834 sq. ft. $60
2017-11-17 Single Family Ranch 4209 Prairie Drive Killeen, TX 76543 $89,900 1,388 sq. ft. 10,894 sq. ft. $65
2017-11-17 Single Family 1420 Opal Road Killeen, TX 76543 $87,500 1,264 sq. ft. 6,795 sq. ft. $69
2017-11-16 Single Family 2313 Gallop Dr Killeen, TX 76549 $99,900 1,600 sq. ft. 10,716 sq. ft. $62
2017-11-16 Single Family 3606 Saul Dr Killeen, TX 76542 $119,900 1,409 sq. ft. 10,106 sq. ft. $85
2017-11-16 Single Family 3101 Willowbend Dr Killeen, TX 76543 $139,900 2,384 sq. ft. 13,721 sq. ft. $59
2017-11-16 Single Family Ranch 3606 Saul Killeen, TX 76542 $119,900 1,409 sq. ft. 10,097 sq. ft. $85
2017-11-16 Single Family Ranch 3101 Willowbend Killeen, TX 76543 $139,900 2,384 sq. ft. 13,717 sq. ft. $59
2017-11-16 Single Family 913 York Ave Killeen, TX 76541 $35,000 640 sq. ft. 5,706 sq. ft. $55
2017-11-16 Single Family 2705 Inspiration Dr Killeen, TX 76549 $249,900 2,382 sq. ft. 8,407 sq. ft. $105
2017-11-16 Single Family Contemporary 6703 Catherine Drive Killeen, TX 76542 $159,950 1,345 sq. ft. 7,841 sq. ft. $119
2017-11-16 Single Family Contemporary 6705 Catherine Killeen, TX 76542 $175,950 1,773 sq. ft. 7,841 sq. ft. $99
2017-11-16 Single Family Contemporary 6706 Catherine Drive Killeen, TX 76542 $189,950 1,983 sq. ft. 7,841 sq. ft. $96
2017-11-16 Single Family Traditional 247 Meadow Glen Drive Killeen, TX 76543 $219,000 2,531 sq. ft. 22,568 sq. ft. $87
2017-11-16 Single Family Contemporary 6704 Catherine Drive Killeen, TX 76542 $226,950 2,367 sq. ft. 7,841 sq. ft. $96
2017-11-16 Single Family Contemporary 6613 Catherine Drive Killeen, TX 76542 $189,950 1,960 sq. ft. 7,841 sq. ft. $97
2017-11-15 Single Family 804 12th Street Killeen, TX 76541 $65,000 1,484 sq. ft. 9,317 sq. ft. $44
2017-11-15 Single Family Ranch 4909 Rose Quartz Drive Killeen, TX 76542 $248,500 3,286 sq. ft. 14,697 sq. ft. $76
2017-11-14 Single Family Contemporary 1303 Springforest Drive Killeen, TX 76543 $329,900 3,910 sq. ft. 15,703 sq. ft. $84
2017-11-14 Single Family Traditional 913 York Avenue Killeen, TX 76541 $35,000 640 sq. ft. 5,693 sq. ft. $55
2017-11-14 Single Family Ranch 2705 Inspiration Killeen, TX 76549 $249,900 2,382 sq. ft. 8,398 sq. ft. $105
2017-11-14 Single Family Ranch 3108 Paintrock Drive Killeen, TX 76549 $98,000 1,498 sq. ft. 8,276 sq. ft. $65
2017-11-13 Single Family Traditional 908 Green Killeen, TX 76541 $49,500 736 sq. ft. 7,588 sq. ft. $67
2017-11-13 Single Family 1611 Big Bend Dr Killeen, TX 76549 $98,900 1,538 sq. ft. 8,668 sq. ft. $64
2017-11-13 Single Family 908 Green Ave Killeen, TX 76541 $49,500 736 sq. ft. 7,579 sq. ft. $67
2017-11-10 Single Family Traditional 3100 Wisteria Lane Killeen, TX 76549 $159,900 1,870 sq. ft. 7,867 sq. ft. $86
2017-11-10 Single Family Traditional 506 Turtle Back Cove Killeen, TX 76542 $157,900 1,998 sq. ft. 10,816 sq. ft. $79
2017-11-09 Single Family 5403 English Oak Dr Killeen, TX 76542 $159,900 1,853 sq. ft. 7,797 sq. ft. $86
2017-11-09 Single Family Traditional 5403 English Oak Killeen, TX 76542 $159,900 1,853 sq. ft. 7,802 sq. ft. $86
2017-11-08 Single Family Contemporary 5802 Mosaic Trail Killeen, TX 76542 $175,900 2,156 sq. ft. 9,518 sq. ft. $82
2017-11-08 Single Family Contemporary; Ranch 4508 Colonel Drive Killeen, TX 76549 $184,900 2,261 sq. ft. 10,019 sq. ft. $82
2017-11-07 Single Family Contemporary 2804 Greystone Drive Killeen, TX 76549 $91,500 1,276 sq. ft. 8,991 sq. ft. $72
2017-11-07 Single Family Contemporary 3802 Flatrock Mountain Trail Killeen, TX 76549 $175,450 1,652 sq. ft. 7,841 sq. ft. $106
2017-11-06 Single Family Contemporary 3710 Flatrock Mountatin Killeen, TX 76549 $159,450 1,547 sq. ft. 7,841 sq. ft. $103
2017-11-06 Single Family Traditional 3810 Appalachian Trail Killeen, TX 76549 $184,450 1,652 sq. ft. 7,841 sq. ft. $112
2017-11-06 Single Family Traditional 3708 Flatrock Mountain Killeen, TX 76549 $175,450 1,652 sq. ft. 7,841 sq. ft. $106
2017-11-06 Single Family 5803 Drystone Ln Killeen, TX 76542 $179,900 2,569 sq. ft. 9,322 sq. ft. $70
2017-11-06 Single Family Traditional 408 Rowdy Drive Killeen, TX 76542 $152,000 1,885 sq. ft. 9,100 sq. ft. $81
2017-11-06 Single Family Ranch; Traditional 4207 Lori Drive Killeen, TX 76549 $126,900 1,824 sq. ft. 7,915 sq. ft. $70